createdAt,value
2022-09-29T00:03:02.158Z,1.80
2022-09-29T00:08:04.513Z,1.30
2022-09-29T00:13:06.428Z,1.30
2022-09-29T00:18:14.038Z,1.40
2022-09-29T00:23:16.628Z,1.00
2022-09-29T00:28:18.407Z,1.30
2022-09-29T00:33:20.262Z,1.35
2022-09-29T00:38:22.289Z,1.30
2022-09-29T00:43:45.527Z,1.30
2022-09-29T00:48:48.121Z,1.10
2022-09-29T00:53:50.052Z,1.35
2022-09-29T00:58:59.672Z,1.45
2022-09-29T01:04:07.407Z,1.15
2022-09-29T01:09:14.387Z,1.30
2022-09-29T01:14:16.788Z,1.43
2022-09-29T01:19:53.096Z,1.85
2022-09-29T01:24:56.368Z,1.30
2022-09-29T01:30:40.652Z,1.90
2022-09-29T01:35:51.275Z,1.48
2022-09-29T01:40:59.765Z,1.50
2022-09-29T01:46:23.960Z,1.63
2022-09-29T01:51:32.484Z,1.40
2022-09-29T01:56:40.289Z,1.75
2022-09-29T02:01:45.020Z,1.67
2022-09-29T02:06:54.675Z,1.80
2022-09-29T02:11:59.025Z,1.50
2022-09-29T02:17:11.323Z,1.60
2022-09-29T02:22:14.607Z,1.58
2022-09-29T02:27:17.603Z,1.85
2022-09-29T02:32:20.173Z,1.33
2022-09-29T02:37:36.880Z,1.23
2022-09-29T02:42:53.991Z,1.88
2022-09-29T02:48:53.834Z,1.15
2022-09-29T02:54:07.431Z,1.50
2022-09-29T02:59:35.516Z,2.42
2022-09-29T03:04:40.162Z,1.90
2022-09-29T03:09:42.007Z,1.90
2022-09-29T03:14:44.186Z,1.88
2022-09-29T03:19:46.052Z,1.55
2022-09-29T03:24:47.841Z,1.70
2022-09-29T03:29:50.675Z,1.90
2022-09-29T03:34:52.732Z,1.75
2022-09-29T03:39:54.552Z,1.70
2022-09-29T03:44:56.520Z,1.70
2022-09-29T03:49:58.268Z,1.98
2022-09-29T03:55:00.083Z,1.20
2022-09-29T04:00:02.335Z,1.65
2022-09-29T04:05:09.944Z,1.70
2022-09-29T04:10:14.822Z,1.63
2022-09-29T04:15:16.722Z,1.80
2022-09-29T04:20:18.764Z,1.20
2022-09-29T04:25:20.740Z,1.67
2022-09-29T04:30:22.833Z,1.83
2022-09-29T04:35:24.635Z,2.35
2022-09-29T04:40:26.628Z,2.22
2022-09-29T04:45:28.686Z,1.70
2022-09-29T04:50:30.935Z,1.70
2022-09-29T04:55:33.013Z,2.15
2022-09-29T05:00:35.313Z,1.83
2022-09-29T05:05:37.172Z,2.00
2022-09-29T05:10:39.065Z,2.22
2022-09-29T05:15:40.893Z,2.00
2022-09-29T05:20:51.751Z,2.70
2022-09-29T05:26:08.914Z,2.53
2022-09-29T05:31:11.231Z,2.13
2022-09-29T05:36:13.702Z,2.35
2022-09-29T05:41:22.782Z,1.95
2022-09-29T05:46:24.844Z,2.50
2022-09-29T05:51:27.131Z,2.38
2022-09-29T05:56:28.952Z,2.17
2022-09-29T06:01:33.299Z,2.70
2022-09-29T06:06:36.751Z,2.45
2022-09-29T06:11:38.561Z,1.98
2022-09-29T06:16:41.627Z,2.28
2022-09-29T06:21:43.734Z,1.95
2022-09-29T06:26:45.587Z,1.85
2022-09-29T06:31:47.562Z,2.08
2022-09-29T06:37:08.258Z,2.30
2022-09-29T06:42:12.705Z,2.17
2022-09-29T06:47:14.866Z,2.15
2022-09-29T06:52:21.314Z,1.50
2022-09-29T06:57:23.317Z,2.67
2022-09-29T07:02:25.197Z,2.00
2022-09-29T07:07:27.097Z,1.90
2022-09-29T07:12:29.053Z,2.17
2022-09-29T07:17:31.705Z,2.28
2022-09-29T07:22:33.633Z,2.58
2022-09-29T07:27:36.092Z,2.47
2022-09-29T07:32:38.008Z,2.22
2022-09-29T07:37:40.264Z,2.50
2022-09-29T07:42:42.216Z,2.80
2022-09-29T07:47:44.937Z,2.25
2022-09-29T07:52:50.867Z,2.13
2022-09-29T07:57:52.797Z,2.25
2022-09-29T08:02:55.036Z,2.60
2022-09-29T08:07:59.230Z,1.85
2022-09-29T08:13:01.355Z,2.00
2022-09-29T08:18:03.369Z,2.83
2022-09-29T08:23:06.510Z,1.67
2022-09-29T08:28:12.414Z,2.25
2022-09-29T08:33:16.473Z,1.80
2022-09-29T08:38:18.335Z,1.80
2022-09-29T08:43:38.547Z,1.75
2022-09-29T08:48:55.811Z,1.60
2022-09-29T08:54:09.753Z,1.35
2022-09-29T08:59:12.209Z,1.15
2022-09-29T09:04:34.940Z,1.35
2022-09-29T09:09:57.064Z,1.65
2022-09-29T09:15:29.177Z,1.98
2022-09-29T09:20:36.860Z,1.42
2022-09-29T09:25:44.567Z,1.35
2022-09-29T09:30:55.714Z,1.55
2022-09-29T09:36:10.286Z,1.50
2022-09-29T09:41:17.472Z,1.08
2022-09-29T09:46:28.866Z,1.20
2022-09-29T09:51:59.960Z,1.45
2022-09-29T09:57:11.369Z,1.20
2022-09-29T10:02:22.487Z,0.80
2022-09-29T10:07:28.247Z,1.05
2022-09-29T10:12:30.207Z,1.10
2022-09-29T10:17:40.816Z,0.90
2022-09-29T10:22:42.824Z,1.20
2022-09-29T10:27:49.674Z,1.33
2022-09-29T10:32:59.293Z,1.00
2022-09-29T10:38:05.717Z,0.98
2022-09-29T10:43:24.892Z,1.30
2022-09-29T10:48:27.718Z,1.33
2022-09-29T10:53:38.226Z,1.38
2022-09-29T10:58:53.305Z,1.75
2022-09-29T11:04:04.856Z,1.20
2022-09-29T11:09:18.444Z,1.27
2022-09-29T11:14:30.867Z,1.48
2022-09-29T11:19:33.341Z,1.08
2022-09-29T11:24:56.911Z,1.10
2022-09-29T11:30:11.080Z,1.52
2022-09-29T11:35:39.111Z,1.35
2022-09-29T11:41:07.163Z,1.38
2022-09-29T11:46:36.533Z,1.20
2022-09-29T11:51:50.383Z,1.13
2022-09-29T11:57:17.391Z,0.85
2022-09-29T12:02:30.508Z,0.90
2022-09-29T12:08:00.257Z,0.95
2022-09-29T12:13:25.140Z,0.88
2022-09-29T12:18:37.053Z,1.40
2022-09-29T12:23:40.511Z,0.98
2022-09-29T12:28:51.126Z,1.30
2022-09-29T12:33:58.884Z,1.13
2022-09-29T12:44:33.406Z,1.10
2022-09-29T12:49:43.123Z,1.33
2022-09-29T12:54:59.934Z,1.30
2022-09-29T13:00:06.634Z,1.00
2022-09-29T13:05:11.123Z,1.17
2022-09-29T13:10:49.443Z,1.45
2022-09-29T13:15:51.220Z,1.13
2022-09-29T13:21:11.564Z,1.20
2022-09-29T13:26:49.467Z,1.63
2022-09-29T13:31:54.384Z,1.70
2022-09-29T13:37:13.444Z,1.00
2022-09-29T13:42:39.974Z,1.20
2022-09-29T13:47:51.056Z,1.40
2022-09-29T13:52:53.131Z,1.50
2022-09-29T13:57:55.053Z,1.42
2022-09-29T14:03:22.251Z,1.77
2022-09-29T14:08:30.283Z,1.27
2022-09-29T14:13:47.577Z,1.25
2022-09-29T14:19:07.822Z,1.37
2022-09-29T14:24:50.561Z,1.33
2022-09-29T14:30:20.430Z,1.90
2022-09-29T14:35:35.550Z,1.50
2022-09-29T14:40:37.535Z,1.23
2022-09-29T14:46:27.087Z,1.00
2022-09-29T14:52:00.353Z,2.63
2022-09-29T14:57:22.447Z,1.67
2022-09-29T15:02:29.133Z,1.35
2022-09-29T15:07:31.083Z,1.40
2022-09-29T15:12:33.584Z,1.67
2022-09-29T15:18:01.517Z,1.40
2022-09-29T15:23:27.813Z,1.38
2022-09-29T15:28:38.345Z,1.38
2022-09-29T15:33:44.015Z,1.70
2022-09-29T15:38:46.223Z,1.67
2022-09-29T15:43:56.643Z,1.33
2022-09-29T15:49:10.372Z,1.88
2022-09-29T15:54:14.825Z,1.92
2022-09-29T15:59:20.187Z,1.48
2022-09-29T16:04:22.887Z,1.52
2022-09-29T16:09:25.524Z,1.95
2022-09-29T16:14:29.762Z,2.10
2022-09-29T16:19:34.823Z,1.70
2022-09-29T16:24:50.753Z,1.73
2022-09-29T16:30:18.528Z,2.10
2022-09-29T16:35:42.504Z,2.95
2022-09-29T16:40:44.967Z,4.28
2022-09-29T16:45:52.655Z,3.35
2022-09-29T16:56:04.881Z,3.40
2022-09-29T17:01:06.780Z,3.40
2022-09-29T17:06:09.646Z,3.95
2022-09-29T17:11:11.475Z,3.55
2022-09-29T17:16:21.733Z,3.58
2022-09-29T17:21:24.457Z,3.50
2022-09-29T17:27:05.082Z,5.32
2022-09-29T17:32:15.253Z,3.75
2022-09-29T17:37:19.654Z,3.97
2022-09-29T17:42:27.249Z,4.03
2022-09-29T17:47:30.365Z,3.83
2022-09-29T17:52:34.812Z,4.38
2022-09-29T17:57:36.617Z,3.42
2022-09-29T18:02:38.431Z,4.07
2022-09-29T18:07:40.444Z,2.58
2022-09-29T18:12:42.217Z,2.08
2022-09-29T18:17:45.568Z,1.67
2022-09-29T18:22:48.307Z,1.52
2022-09-29T18:27:50.259Z,1.48
2022-09-29T18:32:55.501Z,1.60
2022-09-29T18:37:59.093Z,2.00
2022-09-29T18:43:01.311Z,1.60
2022-09-29T18:48:08.329Z,1.40
2022-09-29T18:53:12.048Z,1.93
2022-09-29T18:58:18.826Z,1.92
2022-09-29T19:03:26.395Z,1.55
2022-09-29T19:08:28.212Z,1.45
2022-09-29T19:13:31.323Z,1.70
2022-09-29T19:18:33.152Z,2.08
2022-09-29T19:23:34.934Z,1.88
2022-09-29T19:28:36.818Z,2.20
2022-09-29T19:33:39.964Z,1.95
2022-09-29T19:38:42.375Z,2.97
2022-09-29T19:43:45.807Z,2.58
2022-09-29T19:48:47.651Z,2.78
2022-09-29T19:53:49.850Z,3.30
2022-09-29T19:58:51.922Z,3.30
2022-09-29T20:03:53.728Z,3.33
2022-09-29T20:08:56.269Z,3.00
2022-09-29T20:14:02.763Z,3.00
2022-09-29T20:19:06.468Z,2.72
2022-09-29T20:24:11.263Z,2.80
2022-09-29T20:29:15.234Z,2.72
2022-09-29T20:34:18.777Z,2.72
2022-09-29T20:39:21.680Z,2.40
2022-09-29T20:44:25.939Z,2.70
2022-09-29T20:49:28.741Z,2.80
2022-09-29T20:54:30.595Z,2.80
2022-09-29T20:59:32.559Z,3.38
2022-09-29T21:04:34.500Z,3.13
2022-09-29T21:09:36.379Z,2.90
2022-09-29T21:14:38.250Z,2.78
2022-09-29T21:19:40.264Z,2.53
2022-09-29T21:24:42.169Z,2.80
2022-09-29T21:29:44.945Z,2.90
2022-09-29T21:34:46.787Z,2.80
2022-09-29T21:39:48.621Z,3.42
2022-09-29T21:44:52.824Z,3.20
2022-09-29T21:49:58.264Z,2.83
2022-09-29T21:55:00.107Z,2.53
2022-09-29T22:00:02.483Z,2.63
2022-09-29T22:05:04.482Z,3.03
2022-09-29T22:10:06.954Z,2.85
2022-09-29T22:15:09.361Z,2.95
2022-09-29T22:20:11.437Z,2.67
2022-09-29T22:25:13.302Z,2.90
2022-09-29T22:30:15.172Z,2.85
2022-09-29T22:35:18.392Z,2.67
2022-09-29T22:40:20.183Z,2.80
2022-09-29T22:45:22.226Z,3.45
2022-09-29T22:50:26.239Z,3.40
2022-09-29T22:55:30.487Z,3.05
2022-09-29T23:00:32.297Z,2.58
2022-09-29T23:05:34.559Z,3.28
2022-09-29T23:10:36.688Z,3.33
2022-09-29T23:15:38.528Z,3.30
2022-09-29T23:20:40.351Z,3.58
2022-09-29T23:25:48.605Z,3.00
2022-09-29T23:30:50.897Z,3.45
2022-09-29T23:35:52.948Z,3.95
2022-09-29T23:40:54.962Z,3.63
2022-09-29T23:45:56.833Z,3.50
2022-09-29T23:50:59.751Z,3.38
2022-09-29T23:56:02.262Z,3.40
